LiveFlight Tracker CHF650





Flight Info CHF650



Flight: CHF650 PIC: RONALD REAL
Departure: RCSS Arrival: UNTT
Registration: B-6547 Aircraft: AIRBUS A332
Current Alt: 0 FT GS: 0 KT
Last Info: 2018-01-22 15:50:24
Distance: 0 NM Status: Arrived


ACARS Info CHF650



Pilot Flight Time ALT GS Latitude Longitude
CSN792 CSN332A 2018-01-12 19:25:57 0 0 28.1934194640774 113.214926851788
CSN792 CSN332A 2018-01-12 19:24:50 0 10 28.1937014475672 113.215737392526
CSN792 CSN332A 2018-01-12 19:22:49 318 138 28.1775599790139 113.219164702782
CSN792 CSN332A 2018-01-12 19:20:48 1837 146 28.0973137759139 113.223974531546
CSN792 CSN332A 2018-01-12 19:18:47 3563 171 28.0096102994489 113.230399637485
CSN792 CSN332A 2018-01-12 19:16:46 4308 208 27.9126190086169 113.196337462296
CSN792 CSN332A 2018-01-12 19:14:45 4311 229 27.9705380787759 113.126227492064
CSN792 CSN332A 2018-01-12 19:12:44 5249 233 28.0969733272964 113.158685956342
CSN792 CSN332A 2018-01-12 19:10:43 6257 237 28.223563909512 113.20145123734
CSN792 CSN332A 2018-01-12 19:08:42 7080 237 28.3281564551748 113.236459015057
CSN792 CSN332A 2018-01-12 19:06:41 9390 257 28.4598444773783 113.280607275844
CSN792 CSN332A 2018-01-12 19:04:40 12546 274 28.6023368064691 113.3286195823
CSN792 CSN332A 2018-01-12 19:02:39 15705 294 28.7556830833452 113.380438892978
CSN792 CSN332A 2018-01-12 19:00:38 18865 305 28.9179533705915 113.435517018419
CSN792 CSN332A 2018-01-12 18:58:37 22018 313 29.0844300210345 113.492290061893
CSN792 CSN332A 2018-01-12 18:56:36 25180 330 29.2575403121128 113.551318159971
CSN792 CSN332A 2018-01-12 18:54:35 28343 354 29.4419791768463 113.614018216755
CSN792 CSN332A 2018-01-12 18:52:34 31503 377 29.6383896239609 113.680488195754
CSN792 CSN332A 2018-01-12 18:50:33 34698 455 29.8553397342638 113.752323903179
CSN792 CSN332A 2018-01-12 18:48:32 35522 484 30.1155061089077 113.84028601528
CSN792 CSN332A 2018-01-12 18:46:31 35522 463 30.3590134840471 113.95526568949
CSN792 CSN332A 2018-01-12 18:44:30 35522 459 30.5872590799329 114.093962471934
CSN792 CSN332A 2018-01-12 18:42:29 35522 472 30.8229405124651 114.220719636893
CSN792 CSN332A 2018-01-12 18:40:28 35525 465 31.0711680157497 114.326157587378
CSN792 CSN332A 2018-01-12 18:38:27 35525 498 31.318524917795 114.429401057749
CSN792 CSN332A 2018-01-12 18:36:26 35525 500 31.5976123999121 114.455778120407
CSN792 CSN332A 2018-01-12 18:34:25 35518 503 31.8771156900633 114.481656727264
CSN792 CSN332A 2018-01-12 18:32:24 35515 498 32.1546346518524 114.523576816228
CSN792 CSN332A 2018-01-12 18:30:23 35509 546 32.4447670427993 114.489750746388
CSN792 CSN332A 2018-01-12 18:28:22 35502 544 32.7408497409956 114.398653224109
CSN792 CSN332A 2018-01-12 18:26:21 35492 542 33.0356703037796 114.306654353232
CSN792 CSN332A 2018-01-12 18:24:20 35482 542 33.3301557372265 114.214333683985
CSN792 CSN332A 2018-01-12 18:22:19 35469 540 33.6240862409864 114.122904118715
CSN792 CSN332A 2018-01-12 18:20:18 35466 540 33.9170686041493 114.031279534837
CSN792 CSN332A 2018-01-12 18:18:17 35466 540 34.1539948481756 113.956829180306
CSN792 CSN332A 2018-01-12 18:16:16 35463 542 34.4480376392644 113.865025885922
CSN792 CSN332A 2018-01-12 18:14:15 35463 546 34.74512943057 113.772548645992
CSN792 CSN332A 2018-01-12 18:12:14 35459 552 35.0380751453434 113.652714619474
CSN792 CSN332A 2018-01-12 18:10:13 35453 550 35.3297994113331 113.527839600727
CSN792 CSN332A 2018-01-12 18:08:12 35436 552 35.6193799264036 113.394595767799
CSN792 CSN332A 2018-01-12 18:06:11 35420 546 35.9087796650019 113.266011645707
CSN792 CSN332A 2018-01-12 18:04:10 35404 540 36.1955461091275 113.132645839588
CSN792 CSN332A 2018-01-12 18:02:09 35387 537 36.4869345676883 113.036927893645
CSN792 CSN332A 2018-01-12 18:00:08 35371 535 36.7772168267412 112.942055222877
CSN792 CSN332A 2018-01-12 17:58:07 35361 533 37.066794113034 112.846135346482
CSN792 CSN332A 2018-01-12 17:56:06 35351 533 37.3557838857663 112.749742184232
CSN792 CSN332A 2018-01-12 17:54:05 35348 535 37.6438817217005 112.654691306344
CSN792 CSN332A 2018-01-12 17:52:04 35344 521 37.9321083472084 112.576541142655
CSN792 CSN332A 2018-01-12 17:50:03 35348 515 38.2172413317891 112.509660971199
CSN792 CSN332A 2018-01-12 17:48:02 35341 515 38.5012244926074 112.442113548257
CSN792 CSN332A 2018-01-12 17:46:01 35335 513 38.7839369628656 112.37485425188
CSN792 CSN332A 2018-01-12 17:44:00 35322 511 39.0662161534915 112.306521574322
CSN792 CSN332A 2018-01-12 17:41:59 35308 511 39.3478354006217 112.237239427669
CSN792 CSN332A 2018-01-12 17:39:58 35295 509 39.6283932533568 112.168291083926
CSN792 CSN332A 2018-01-12 17:37:57 35279 505 39.9085535313853 112.099114039501
CSN792 CSN332A 2018-01-12 17:35:56 35266 502 40.1863633207529 112.032369147538
CSN792 CSN332A 2018-01-12 17:33:55 35262 509 40.4661347532441 111.970228990157
CSN792 CSN332A 2018-01-12 17:31:54 35256 509 40.7438923535048 111.892561650157
CSN792 CSN332A 2018-01-12 17:29:53 35256 505 41.0166155887298 111.784437347707
CSN792 CSN332A 2018-01-12 17:27:52 35256 503 41.2875201251208 111.676471578226
CSN792 CSN332A 2018-01-12 17:25:51 35253 502 41.5577551783707 111.568711723346
CSN792 CSN332A 2018-01-12 17:23:50 35246 502 41.8273720917824 111.460268228899
CSN792 CSN332A 2018-01-12 17:21:49 35240 500 42.0965369521791 111.35434433884
CSN792 CSN332A 2018-01-12 17:19:48 35230 498 42.3646199743363 111.248383061305
CSN792 CSN332A 2018-01-12 17:17:47 35220 496 42.6330636673986 111.146316507107
CSN792 CSN332A 2018-01-12 17:15:46 35207 494 42.9013619457878 111.048307841734
CSN792 CSN332A 2018-01-12 17:13:45 35200 498 43.100442359092 110.971289353658
CSN792 CSN332A 2018-01-12 17:11:44 35177 515 43.3136945660196 110.721205798924
CSN792 CSN332A 2018-01-12 17:09:43 35161 515 43.5011724896716 110.419139510819
CSN792 CSN332A 2018-01-12 17:07:42 35144 515 43.6883941262111 110.116130552821
CSN792 CSN332A 2018-01-12 17:05:41 35121 515 43.8757019184023 109.811547879365
CSN792 CSN332A 2018-01-12 17:03:40 35079 515 44.0619349249671 109.505225047142
CSN792 CSN332A 2018-01-12 17:01:39 35059 513 44.2467477478479 109.197866578949
CSN792 CSN332A 2018-01-12 16:59:38 35039 513 44.4303231479458 108.888422728228
CSN792 CSN332A 2018-01-12 16:57:37 35020 513 44.6119372714333 108.575688458588
CSN792 CSN332A 2018-01-12 16:55:36 35000 513 44.7939195434231 108.262760160358
CSN792 CSN332A 2018-01-12 16:53:35 34987 515 44.9738785154047 107.945990938873
CSN792 CSN332A 2018-01-12 16:51:34 34970 513 45.1545598070315 107.627994163057
CSN792 CSN332A 2018-01-12 16:49:33 34984 513 45.3341417015418 107.308483749878
CSN792 CSN332A 2018-01-12 16:47:32 34970 511 45.5114015348529 106.987167047237
CSN792 CSN332A 2018-01-12 16:45:31 34964 511 45.6888389693588 106.665070347348
CSN792 CSN332A 2018-01-12 16:43:30 34954 509 45.8634504733128 106.339632202377
CSN792 CSN332A 2018-01-12 16:41:29 34948 511 46.03714334708 106.013252703877
CSN792 CSN332A 2018-01-12 16:39:28 34944 511 46.2091690545798 105.682359477008
CSN792 CSN332A 2018-01-12 16:37:28 34944 513 46.3812286389349 105.3494003485
CSN792 CSN332A 2018-01-12 16:35:26 34944 513 46.5526285272043 105.014455738155
CSN792 CSN332A 2018-01-12 16:33:25 34944 507 46.748475888038 104.713072273198
CSN792 CSN332A 2018-01-12 16:31:24 34944 509 46.9512997061282 104.420905973911
CSN792 CSN332A 2018-01-12 16:29:23 34928 513 47.1489914302003 104.11673063055
CSN792 CSN332A 2018-01-12 16:27:22 34931 525 47.3255397338462 103.77738900531
CSN792 CSN332A 2018-01-12 16:25:21 34948 517 47.4859963145289 103.411495190678
CSN792 CSN332A 2018-01-12 16:23:20 34941 449 47.7191044152624 103.432272141201
CSN792 CSN332A 2018-01-12 16:21:19 34974 513 47.9373910428581 103.231671331361
CSN792 CSN332A 2018-01-12 16:19:18 34984 511 48.1157583362202 102.89582427031
CSN792 CSN332A 2018-01-12 16:17:17 34997 509 48.2929390784123 102.559490953336
CSN792 CSN332A 2018-01-12 16:15:16 35007 509 48.4686795636037 102.221648269877
CSN792 CSN332A 2018-01-12 16:13:15 35020 513 48.6447356950735 101.878874135489
CSN792 CSN332A 2018-01-12 16:11:14 35066 511 48.819443115468 101.532964706631
CSN792 CSN332A 2018-01-12 16:09:14 35079 509 48.9951217362823 101.181695821839
CSN792 CSN332A 2018-01-12 16:07:11 35089 507 49.1681847655302 100.831725028984
CSN792 CSN332A 2018-01-12 16:05:09 35102 505 49.338102320289 100.483282601217
CSN792 CSN332A 2018-01-12 16:03:07 35112 505 49.5068949723989 100.134315119565
CSN792 CSN332A 2018-01-12 16:01:06 35121 505 49.6741491060915 99.7817369825353
CSN792 CSN332A 2018-01-12 15:59:05 35131 507 49.8411724053459 99.426540364397
CSN792 CSN332A 2018-01-12 15:57:04 35141 505 50.0074813157347 99.0698978556581
CSN792 CSN332A 2018-01-12 15:55:03 35151 503 50.1759040062419 98.7153331517206
CSN792 CSN332A 2018-01-12 15:53:02 35161 511 50.3398069418733 98.3532269820575
CSN792 CSN332A 2018-01-12 15:51:01 35171 519 50.4433100570567 97.9296985096351
CSN792 CSN332A 2018-01-12 15:49:00 35184 519 50.5440355012222 97.5008258723628
CSN792 CSN332A 2018-01-12 15:46:59 35177 517 50.6426716067323 97.0709835819634
CSN792 CSN332A 2018-01-12 15:44:58 35190 517 50.7395343634835 96.6400753795205
CSN792 CSN332A 2018-01-12 15:42:57 35203 517 50.8343833602642 96.2081227165077
CSN792 CSN332A 2018-01-12 15:40:56 35213 519 50.9285609408393 95.771518000965
CSN792 CSN332A 2018-01-12 15:38:55 35226 519 51.0211874021722 95.3333719118493
CSN792 CSN332A 2018-01-12 15:36:54 35236 517 51.1117753739093 94.8955941322999
CSN792 CSN332A 2018-01-12 15:34:53 35246 515 51.2004902694534 94.4564502530224
CSN792 CSN332A 2018-01-12 15:32:52 35256 517 51.2873157355827 94.0159004314205
CSN792 CSN332A 2018-01-12 15:30:51 35266 517 51.3727448323276 93.573889922879
CSN792 CSN332A 2018-01-12 15:28:50 35272 517 51.4568438162359 93.1297721329939
CSN792 CSN332A 2018-01-12 15:26:49 35279 515 51.5387894045754 92.684568245713
CSN792 CSN332A 2018-01-12 15:24:48 35285 513 51.6187697600741 92.2396691916855
CSN792 CSN332A 2018-01-12 15:22:47 35285 513 51.6967772041135 91.7930158428005
CSN792 CSN332A 2018-01-12 15:20:46 35295 513 51.7740070488781 91.3449293687152
CSN792 CSN332A 2018-01-12 15:18:45 35305 513 51.8488196619504 90.8952046391893
CSN792 CSN332A 2018-01-12 15:16:44 35305 511 51.9215407273483 90.4465784615974
CSN792 CSN332A 2018-01-12 15:14:43 35305 511 51.9931659621067 89.9968407889637
CSN792 CSN332A 2018-01-12 15:12:42 35302 509 52.0622383059652 89.5460337699178
CSN792 CSN332A 2018-01-12 15:10:41 35302 507 52.1306377048242 89.0962655577464
CSN792 CSN332A 2018-01-12 15:08:40 35302 507 52.1907035087881 88.6425415678695
CSN792 CSN332A 2018-01-12 15:06:39 35302 511 52.2350097721525 88.1826790726198
CSN792 CSN332A 2018-01-12 15:04:38 35302 513 52.2789243767983 87.718865118411
CSN792 CSN332A 2018-01-12 15:02:37 35318 513 52.3199727681174 87.2533848089205
CSN792 CSN332A 2018-01-12 15:00:36 35318 511 52.3596567412796 86.7882930559141
CSN792 CSN332A 2018-01-12 14:58:35 35315 511 52.3974337825779 86.3238517619974
CSN792 CSN332A 2018-01-12 14:56:34 35285 515 52.4237592599179 85.8543090393344
CSN792 CSN332A 2018-01-12 14:54:33 35279 505 52.4647546367132 85.3904479405948
CSN792 CSN332A 2018-01-12 14:52:32 35276 503 52.6093116244428 84.9907561870688
CSN792 CSN332A 2018-01-12 14:50:31 35269 502 52.7520619788719 84.5906512496275
CSN792 CSN332A 2018-01-12 14:48:30 35262 502 52.8949308701931 84.1894175501024
CSN792 CSN332A 2018-01-12 14:46:29 35259 502 53.0347501332166 83.7831796418006
CSN792 CSN332A 2018-01-12 14:44:28 35259 502 53.1741622749853 83.3768924068189
CSN792 CSN332A 2018-01-12 14:42:27 35259 502 53.311758432921 82.9663479260995
CSN792 CSN332A 2018-01-12 14:40:26 35256 502 53.4491970403717 82.554418076467
CSN792 CSN332A 2018-01-12 14:38:25 35249 502 53.5855363267446 82.1413944915443
CSN792 CSN332A 2018-01-12 14:36:24 35246 502 53.7202310445788 81.7243182910419
CSN792 CSN332A 2018-01-12 14:34:23 35243 502 53.8540091528576 81.3048945755042
CSN792 CSN332A 2018-01-12 14:32:22 35240 498 53.9850493883001 80.884242685401
CSN792 CSN332A 2018-01-12 14:30:21 35240 496 54.1138692369911 80.4641018775009
CSN792 CSN332A 2018-01-12 14:28:20 35243 500 54.2414566473198 80.0417730598274
CSN792 CSN332A 2018-01-12 14:26:19 35240 498 54.3680083740598 79.613695092967
CSN792 CSN332A 2018-01-12 14:24:18 35240 496 54.4943520781044 79.1882045584151
CSN792 CSN332A 2018-01-12 14:22:17 35236 494 54.619366520454 78.7619492631616
CSN792 CSN332A 2018-01-12 14:20:16 35236 492 54.7455152638673 78.3370576322533
CSN792 CSN332A 2018-01-12 14:18:15 35233 498 54.8723606498526 77.9092919741064
CSN792 CSN332A 2018-01-12 14:16:14 35226 502 54.9322607677186 77.4391878623653
CSN792 CSN332A 2018-01-12 14:14:13 35217 500 54.9436069047404 76.9507765520014
CSN792 CSN332A 2018-01-12 14:12:12 35197 500 54.9528179598995 76.464560928332
CSN792 CSN332A 2018-01-12 14:10:11 35194 505 54.9599449367797 75.9756443094954
CSN792 CSN332A 2018-01-12 14:08:10 35187 503 54.9646121048507 75.4836986635929
CSN792 CSN332A 2018-01-12 14:06:09 35180 500 54.9668702373019 74.9951625881227
CSN792 CSN332A 2018-01-12 14:04:08 35174 498 54.9656233611555 74.5085078652374
CSN792 CSN332A 2018-01-12 14:02:07 35171 502 54.9654263255634 74.0215580243607
CSN792 CSN332A 2018-01-12 14:00:06 35167 500 54.968773559696 73.5318907451624
CSN792 CSN332A 2018-01-12 13:58:05 35167 496 54.9574181504658 73.0470128495646
CSN792 CSN332A 2018-01-12 13:56:04 35171 492 54.9389922433253 72.5658524814297
CSN792 CSN332A 2018-01-12 13:54:03 35171 496 54.9187099557239 72.0860346684891
CSN792 CSN332A 2018-01-12 13:52:02 35171 496 54.8957966557904 71.6040188829129
CSN792 CSN332A 2018-01-12 13:50:01 35177 492 54.8703287975218 71.1245746250805
CSN792 CSN332A 2018-01-12 13:48:00 35177 490 54.8491478849856 70.6481110693066
CSN792 CSN332A 2018-01-12 13:45:59 35174 492 54.8265905669608 70.1740144067624
CSN792 CSN332A 2018-01-12 13:43:58 35171 494 54.7771331984635 69.7004705545698
CSN792 CSN332A 2018-01-12 13:41:57 35161 500 54.7544438315656 69.2347888834539
CSN792 CSN332A 2018-01-12 13:39:56 35171 503 54.9604059983763 68.9025197261906
CSN792 CSN332A 2018-01-12 13:37:55 35187 503 55.1720144204132 68.5771950112704
CSN792 CSN332A 2018-01-12 13:35:54 35200 505 55.4026599619034 68.3067439193707
CSN792 CSN332A 2018-01-12 13:33:53 35203 468 55.5341619240465 67.9515308067822
CSN792 CSN332A 2018-01-12 13:31:52 35213 470 55.4598968134055 67.5056852912144
CSN792 CSN332A 2018-01-12 13:29:51 35226 470 55.3848764262377 67.0595063920345
CSN792 CSN332A 2018-01-12 13:27:50 35240 468 55.3067199797166 66.6174581373666
CSN792 CSN332A 2018-01-12 13:25:49 35253 468 55.2290840569176 66.1780156797221
CSN792 CSN332A 2018-01-12 13:23:48 35266 472 55.1498054494196 65.7363678169761
CSN792 CSN332A 2018-01-12 13:21:47 35305 472 55.0666461614543 65.2966968112394
CSN792 CSN332A 2018-01-12 13:19:46 35318 470 54.9825612207235 64.8600041569447
CSN792 CSN332A 2018-01-12 13:17:45 35335 470 54.896293009669 64.4261588926578
CSN792 CSN332A 2018-01-12 13:15:44 35348 476 54.807877818419 63.9921473453273
CSN792 CSN332A 2018-01-12 13:13:43 35364 476 54.7186210316551 63.5565338121864
CSN792 CSN332A 2018-01-12 13:11:42 35364 474 54.6264701828138 63.124932609756
CSN792 CSN332A 2018-01-12 13:09:41 35367 472 54.5348391250949 62.6959878481819
CSN792 CSN332A 2018-01-12 13:07:40 35367 470 54.4387049020579 62.2728243080191
CSN792 CSN332A 2018-01-12 13:05:39 35367 476 54.3251770681897 61.8606797953087
CSN792 CSN332A 2018-01-12 13:03:38 35371 474 54.2093514673949 61.4496916131106
CSN792 CSN332A 2018-01-12 13:01:37 35367 472 54.0935175708918 61.0426327901418
CSN792 CSN332A 2018-01-12 12:59:36 35381 476 53.9765164068084 60.6367615117239
CSN792 CSN332A 2018-01-12 12:57:35 35374 476 53.8568581432136 60.2313823720174
CSN792 CSN332A 2018-01-12 12:55:34 35364 478 53.7343864935285 59.8289299666656
CSN792 CSN332A 2018-01-12 12:53:33 35358 478 53.6091124472411 59.4290561770055
CSN792 CSN332A 2018-01-12 12:51:32 35354 472 53.4803062597109 59.0374910082711
CSN792 CSN332A 2018-01-12 12:49:31 35348 490 53.4239451151031 58.6334851327296
CSN792 CSN332A 2018-01-12 12:47:30 35358 488 53.4935106280919 58.1885359815466
CSN792 CSN332A 2018-01-12 12:45:29 35364 488 53.5611673347482 57.7417486171606
CSN792 CSN332A 2018-01-12 12:43:27 35400 490 53.6279109844149 57.2936898003482
CSN792 CSN332A 2018-01-12 12:41:27 35443 488 53.7050967242388 56.8494263889255
CSN792 CSN332A 2018-01-12 12:39:26 35472 474 53.7278760888976 56.4060418207039
CSN792 CSN332A 2018-01-12 12:37:25 35492 474 53.6614833194143 55.9720223351754
CSN792 CSN332A 2018-01-12 12:35:24 35502 474 53.5931567545477 55.5386208183882
CSN792 CSN332A 2018-01-12 12:33:23 35541 474 53.5245664964992 55.1060709033535
CSN792 CSN332A 2018-01-12 12:31:22 35541 472 53.454674516389 54.6758954189294
CSN792 CSN332A 2018-01-12 12:29:21 35541 470 53.3820760360776 54.2495714090546
CSN792 CSN332A 2018-01-12 12:27:20 35541 472 53.3087472729954 53.8240465244141
CSN792 CSN332A 2018-01-12 12:25:18 35541 472 53.2341002010042 53.3981257090206
CSN792 CSN332A 2018-01-12 12:23:18 35545 470 53.1565305262694 52.9753914786687
CSN792 CSN332A 2018-01-12 12:21:17 35564 470 53.0791226221627 52.5560542310554
CSN792 CSN332A 2018-01-12 12:19:15 35574 472 53.0010145035442 52.1372350953878
CSN792 CSN332A 2018-01-12 12:17:14 35584 476 52.9200953706779 51.7160761189803
CSN792 CSN332A 2018-01-12 12:15:13 35597 480 52.8377266924938 51.293950569824
CSN792 CSN332A 2018-01-12 12:13:12 35597 476 52.7546497172426 50.8730439836817
CSN792 CSN332A 2018-01-12 12:11:11 35597 476 52.6710297004865 50.4543786954958
CSN792 CSN332A 2018-01-12 12:09:11 35610 484 52.5819059954644 50.037186225172
CSN792 CSN332A 2018-01-12 12:07:10 35607 482 52.462607097522 49.6385214883287
CSN792 CSN332A 2018-01-12 12:05:09 35604 478 52.3404882567014 49.2450155079296
CSN792 CSN332A 2018-01-12 12:03:07 35594 476 52.2161557343743 48.8578180656019
CSN792 CSN332A 2018-01-12 12:01:06 35581 476 52.0976408548224 48.4687978924566
CSN792 CSN332A 2018-01-12 11:59:05 35587 482 51.9823163699108 48.0741153201844
CSN792 CSN332A 2018-01-12 11:57:04 35577 494 51.8880989746661 47.6706629894903
CSN792 CSN332A 2018-01-12 11:55:03 35568 492 51.8642571656778 47.2254271723507
CSN792 CSN332A 2018-01-12 11:53:02 35558 490 51.8372465143388 46.781749545382
CSN792 CSN332A 2018-01-12 11:51:02 35554 490 51.8123186450077 46.3396792186481
CSN792 CSN332A 2018-01-12 11:49:01 35554 490 51.7951505383391 45.8971304486141
CSN792 CSN332A 2018-01-12 11:46:59 35558 490 51.7760868854633 45.4561439165785
CSN792 CSN332A 2018-01-12 11:44:58 35561 488 51.7557208629732 45.0135327863005
CSN792 CSN332A 2018-01-12 11:42:58 35564 486 51.7311131430503 44.5381231253947
CSN792 CSN332A 2018-01-12 11:40:46 35574 486 51.7071327762151 44.1005103501055
CSN792 CSN332A 2018-01-12 11:38:45 35587 486 51.6816841069375 43.663590713087
CSN792 CSN332A 2018-01-12 11:36:44 35604 486 51.6564583119644 43.2252319967406
CSN792 CSN332A 2018-01-12 11:34:44 35607 482 51.6193298954041 42.7922598145107
CSN792 CSN332A 2018-01-12 11:32:42 35636 486 51.6265079223467 42.3559054425706
CSN792 CSN332A 2018-01-12 11:30:42 35643 486 51.6485010022418 41.9179492000086
CSN792 CSN332A 2018-01-12 11:28:40 35650 488 51.6689931406892 41.4792827995117
CSN792 CSN332A 2018-01-12 11:26:39 35656 486 51.6877770040048 41.0408599974973
CSN792 CSN332A 2018-01-12 11:24:38 35663 482 51.7016604323999 40.6033036236923
CSN792 CSN332A 2018-01-12 11:22:37 35666 484 51.7207530627415 40.1680335127901
CSN792 CSN332A 2018-01-12 11:20:36 35669 486 51.7675679885586 39.7359607971547
CSN792 CSN332A 2018-01-12 11:18:35 35669 488 51.801155667484 39.3003181162778
CSN792 CSN332A 2018-01-12 11:16:35 35673 490 51.9343095631793 38.9018719172597
CSN792 CSN332A 2018-01-12 11:14:31 35676 484 52.0723075082704 38.5213026123893
CSN792 CSN332A 2018-01-12 11:12:30 35679 482 52.183250118259 38.1220645950488
CSN792 CSN332A 2018-01-12 11:10:29 35682 482 52.2700040037214 37.7025209179847
CSN792 CSN332A 2018-01-12 11:08:28 35679 478 52.3543769810354 37.2849451662549
CSN792 CSN332A 2018-01-12 11:06:27 35679 474 52.4373063906511 36.8686761224281
CSN792 CSN332A 2018-01-12 11:04:26 35676 472 52.5184687053731 36.4531791806417
CSN792 CSN332A 2018-01-12 11:02:26 35686 480 52.5997076704142 36.0355710531896
CSN792 CSN332A 2018-01-12 11:00:24 35689 478 52.6751477134472 35.6123607019268
CSN792 CSN332A 2018-01-12 10:58:23 35699 478 52.7536188164966 35.1913720618043
CSN792 CSN332A 2018-01-12 10:56:22 35702 465 52.8753558774593 34.7967350089873
CSN792 CSN332A 2018-01-12 10:54:21 35702 445 52.7314171159721 34.4785465725525
CSN792 CSN332A 2018-01-12 10:52:20 35696 447 52.5417861333712 34.2083414393153
CSN792 CSN332A 2018-01-12 10:50:19 35692 453 52.350164528724 33.9381889515583
CSN792 CSN332A 2018-01-12 10:48:18 35692 453 52.1569517077224 33.6699158489439
CSN792 CSN332A 2018-01-12 10:46:17 35689 455 51.9630779788642 33.4021845096323
CSN792 CSN332A 2018-01-12 10:44:16 35676 455 51.7685470410243 33.135800673664
CSN792 CSN332A 2018-01-12 10:42:15 35669 455 51.5727931184206 32.8735827226292
CSN792 CSN332A 2018-01-12 10:40:14 35659 453 51.3767790950446 32.6121438716435
CSN792 CSN332A 2018-01-12 10:38:13 35650 455 51.1791956657898 32.3550946397657
CSN792 CSN332A 2018-01-12 10:36:12 35633 457 50.9769559718806 32.108340824224
CSN792 CSN332A 2018-01-12 10:34:11 35600 465 50.7749717828367 31.8556567491406
CSN792 CSN332A 2018-01-12 10:32:10 35591 470 50.6429397880357 31.4965534576064
CSN792 CSN332A 2018-01-12 10:30:09 35584 468 50.5145380755615 31.1351118461742
CSN792 CSN332A 2018-01-12 10:28:08 35581 467 50.3849505672621 30.7780767341598
CSN792 CSN332A 2018-01-12 10:26:07 35587 465 50.2506246011291 30.4273667822988
CSN792 CSN332A 2018-01-12 10:24:06 35584 470 50.1132805368676 30.0796147288668
CSN792 CSN332A 2018-01-12 10:22:05 35581 478 50.0389646609734 29.6824365253203
CSN792 CSN332A 2018-01-12 10:20:04 35561 478 49.9800722773476 29.2753646482331
CSN792 CSN332A 2018-01-12 10:18:03 35545 476 49.9196353466005 28.8701054437539
CSN792 CSN332A 2018-01-12 10:16:02 35518 474 49.8543372716284 28.4701966552611
CSN792 CSN332A 2018-01-12 10:14:01 35512 474 49.7834341524539 28.0734266448682
CSN792 CSN332A 2018-01-12 10:12:00 35515 482 49.7663977463963 27.6612051173493
CSN792 CSN332A 2018-01-12 10:09:59 35518 480 49.7759816603493 27.2449687221911
CSN792 CSN332A 2018-01-12 10:07:58 35525 476 49.7849773590736 26.8300652383464
CSN792 CSN332A 2018-01-12 10:05:57 35528 474 49.7908139275916 26.4172693978314
CSN792 CSN332A 2018-01-12 10:03:56 35512 474 49.7953799329987 26.0058867836241
CSN792 CSN332A 2018-01-12 10:01:55 35505 472 49.8006043157829 25.5957389097448
CSN792 CSN332A 2018-01-12 09:59:54 35499 472 49.8118562095985 25.1859555608508
CSN792 CSN332A 2018-01-12 09:57:53 35502 470 49.829331202903 24.7777095134031
CSN792 CSN332A 2018-01-12 09:55:52 35495 468 49.8446616415208 24.3714557779106
CSN792 CSN332A 2018-01-12 09:53:51 35492 468 49.8594200491087 23.9650239103205
CSN792 CSN332A 2018-01-12 09:51:50 35489 467 49.8732108467536 23.5599979744657
CSN792 CSN332A 2018-01-12 09:49:49 35482 463 49.8852499965983 23.1571197683506
CSN792 CSN332A 2018-01-12 09:47:48 35482 459 49.896987473583 22.7560325157269
CSN792 CSN332A 2018-01-12 09:45:47 35479 455 49.9072662178819 22.3578142220019
CSN792 CSN332A 2018-01-12 09:43:46 35456 455 49.9159837888776 21.9629867424487
CSN792 CSN332A 2018-01-12 09:41:45 35449 453 49.9237943233694 21.568482949489
CSN792 CSN332A 2018-01-12 09:39:44 35417 451 49.9300003332873 21.1749652004729
CSN792 CSN332A 2018-01-12 09:37:43 35404 449 49.9343233615701 20.783498801025
CSN792 CSN332A 2018-01-12 09:35:42 35420 447 49.938111665304 20.3940902383713
CSN792 CSN332A 2018-01-12 09:33:41 35430 447 49.9399017593678 20.0046087497495
CSN792 CSN332A 2018-01-12 09:31:40 35427 447 49.9411835984262 19.614972477891
CSN792 CSN332A 2018-01-12 09:29:39 35410 445 49.9405565973108 19.2267061488945
CSN792 CSN332A 2018-01-12 09:27:38 35390 445 49.9395494753849 18.8386975589762
CSN792 CSN332A 2018-01-12 09:25:37 35377 445 49.9366001002522 18.4516045418826
CSN792 CSN332A 2018-01-12 09:23:36 35381 443 49.9440728532512 18.0669282053325
CSN792 CSN332A 2018-01-12 09:21:35 35384 445 49.9610454044191 17.6816210102126
CSN792 CSN332A 2018-01-12 09:19:34 35387 447 49.9762167284844 17.2942265275357
CSN792 CSN332A 2018-01-12 09:17:33 35381 447 49.9912070850348 16.9057015449333
CSN792 CSN332A 2018-01-12 09:15:32 35351 447 50.0048604563303 16.5160626545731
CSN792 CSN332A 2018-01-12 09:13:31 35348 449 50.0172595666655 16.1255365136032
CSN792 CSN332A 2018-01-12 09:11:30 35344 451 50.0278329431335 15.7334687627445
CSN792 CSN332A 2018-01-12 09:09:29 35348 451 50.0358876653176 15.3412707612848
CSN792 CSN332A 2018-01-12 09:07:28 35364 451 50.0429096782561 14.9473543987036
CSN792 CSN332A 2018-01-12 09:05:27 35371 453 50.0490484599601 14.5529337493663
CSN792 CSN332A 2018-01-12 09:03:26 35344 457 50.0544771096063 14.1573711255524
CSN792 CSN332A 2018-01-12 09:01:25 35338 459 50.0594201765187 13.758110164394
CSN792 CSN332A 2018-01-12 08:59:24 35328 459 50.062730719581 13.3580899324259
CSN792 CSN332A 2018-01-12 08:57:23 35318 461 50.0657470192708 12.9576380124593
CSN792 CSN332A 2018-01-12 08:55:22 35322 461 50.0645736133276 12.5552947151932
CSN792 CSN332A 2018-01-12 08:53:21 35325 463 50.0685743345359 12.1520761995376
CSN792 CSN332A 2018-01-12 08:51:20 35328 459 50.0722441990544 11.7486515689186
CSN792 CSN332A 2018-01-12 08:49:19 34623 447 50.0732132274961 11.3543030748764
CSN792 CSN332A 2018-01-12 08:47:18 33402 428 50.0761657358323 10.9703233797954
CSN792 CSN332A 2018-01-12 08:45:17 31703 402 50.0766410893018 10.6079661150246
CSN792 CSN332A 2018-01-12 08:43:16 28868 389 50.0647881221479 10.262720125655
CSN792 CSN332A 2018-01-12 08:41:15 25207 389 50.2009233497584 10.0217278227649
CSN792 CSN332A 2018-01-12 08:39:14 20768 381 50.203960007517 9.68803684812719
CSN792 CSN332A 2018-01-12 08:37:13 16332 360 50.1010871354184 9.41131065379594
CSN792 CSN332A 2018-01-12 08:35:12 11831 303 50.0623315805799 9.12825476901055
CSN792 CSN332A 2018-01-12 08:33:11 7346 259 50.0511386017035 8.89423296516798
CSN792 CSN332A 2018-01-12 08:31:10 2848 237 50.0667414525031 8.69588064718099
CSN792 CSN332A 2018-01-12 08:29:09 0 47 50.0333466466562 8.53766719158136
CSN792 CSN332A 2018-01-12 08:27:08 0 16 50.0367647412988 8.54393651088135
CSN792 CSN332A 2018-01-12 08:25:07 0 16 50.0396771963717 8.55615907338652
CSN792 CSN332A 2018-01-12 08:23:06 0 12 50.0447597202198 8.55921252379325
CSN792 CSN332A 2018-01-12 08:21:05 0 2 50.0463759870957 8.5620760071334
CSN792 CSN332A 2018-01-12 08:19:04 0 0 50.0469000063078 8.56147777401035